Archiv-/Tagesdaten

--Timestamp---	Temp	Chill	HIndex	Humid	Dewpt	Wind	HiWind	WindDir	Rain	Barom	Solar	ET	UV
--------------	----	-----	------	-----	-----	----	------	-------	----	-----	-----	--	--
20071129 00:05	-2.7	-2.7	-2.7	94	-3.6	2	6	202	0.00	1018.019	0	0.000	0
20071129 00:10	-2.7	-2.7	-2.7	94	-3.6	2	6	202	0.00	1018.053	0	0.000	0
20071129 00:15	-2.7	-2.7	-2.7	94	-3.6	0	3	202	0.00	1018.087	0	0.000	0
20071129 00:20	-2.8	-2.8	-2.8	93	-3.7	0	0	202	0.00	1018.053	0	0.000	0
20071129 00:25	-2.8	-2.8	-2.8	93	-3.7	0	2	202	0.00	1017.985	0	0.000	0
20071129 00:30	-2.8	-2.8	-2.8	93	-3.7	2	5	202	0.00	1017.985	0	0.000	0
20071129 00:35	-2.7	-2.7	-2.7	94	-3.6	0	2	202	0.00	1018.019	0	0.000	0
20071129 00:40	-2.7	-2.7	-2.7	94	-3.6	2	6	202	0.00	1018.053	0	0.000	0
20071129 00:45	-2.7	-2.7	-2.7	94	-3.6	0	2	202	0.00	1017.884	0	0.000	0
20071129 00:50	-2.7	-2.7	-2.7	94	-3.5	2	8	202	0.00	1017.782	0	0.000	0
20071129 00:55	-2.7	-2.7	-2.7	94	-3.5	0	3	180	0.00	1017.647	0	0.000	0
20071129 01:00	-2.7	-2.7	-2.7	93	-3.6	5	10	202	0.00	1017.680	0	0.000	0
20071129 01:05	-2.7	-2.7	-2.7	94	-3.6	2	8	202	0.00	1017.545	0	0.000	0
20071129 01:10	-2.7	-2.7	-2.7	93	-3.7	3	6	202	0.00	1017.443	0	0.000	0
20071129 01:15	-2.8	-2.8	-2.8	93	-3.7	5	8	202	0.00	1017.443	0	0.000	0
20071129 01:20	-2.8	-2.8	-2.8	93	-3.8	3	8	202	0.00	1017.376	0	0.000	0
20071129 01:25	-2.9	-2.9	-2.9	93	-3.9	2	6	225	0.00	1017.308	0	0.000	0
20071129 01:30	-2.9	-2.9	-2.9	94	-3.7	3	8	202	0.00	1017.240	0	0.000	0
20071129 01:35	-2.9	-2.9	-2.9	94	-3.8	3	10	225	0.00	1017.206	0	0.000	0
20071129 01:40	-2.9	-2.9	-2.9	94	-3.8	3	10	225	0.00	1017.206	0	0.000	0
20071129 01:45	-2.9	-2.9	-2.9	94	-3.8	2	6	225	0.00	1017.105	0	0.000	0
20071129 01:50	-2.9	-2.9	-2.9	94	-3.7	2	5	225	0.00	1017.003	0	0.000	0
20071129 01:55	-2.9	-2.9	-2.9	94	-3.7	3	8	225	0.00	1017.003	0	0.000	0
20071129 02:00	-2.8	-2.8	-2.8	94	-3.7	2	8	202	0.00	1017.003	0	0.000	0
20071129 02:05	-2.8	-2.8	-2.8	94	-3.7	3	6	225	0.00	1017.172	0	0.000	0
20071129 02:10	-2.9	-2.9	-2.9	94	-3.7	3	8	247	0.00	1017.172	0	0.000	0
20071129 02:15	-2.9	-2.9	-2.9	94	-3.8	3	11	225	0.00	1017.172	0	0.000	0
20071129 02:20	-2.9	-2.9	-2.9	94	-3.7	3	10	202	0.00	1017.037	0	0.000	0
20071129 02:25	-2.8	-2.8	-2.8	94	-3.7	2	5	225	0.00	1016.969	0	0.000	0
20071129 02:30	-2.8	-2.8	-2.8	94	-3.6	2	5	225	0.00	1016.868	0	0.000	0
20071129 02:35	-2.7	-2.7	-2.7	94	-3.6	0	5	225	0.00	1016.935	0	0.000	0
20071129 02:40	-2.7	-2.7	-2.7	94	-3.6	2	5	225	0.00	1016.901	0	0.000	0
20071129 02:45	-2.7	-2.7	-2.7	94	-3.5	2	3	225	0.00	1016.901	0	0.000	0
20071129 02:50	-2.7	-2.7	-2.7	94	-3.5	2	3	225	0.00	1016.901	0	0.000	0
20071129 02:55	-2.6	-2.6	-2.6	94	-3.4	2	8	180	0.00	1016.935	0	0.000	0
20071129 03:00	-2.5	-2.5	-2.5	94	-3.3	0	3	180	0.00	1016.969	0	0.000	0
20071129 03:05	-2.4	-2.4	-2.4	94	-3.3	2	6	180	0.00	1017.003	0	0.000	0
20071129 03:10	-2.4	-2.4	-2.4	94	-3.2	2	5	180	0.00	1017.003	0	0.000	0
20071129 03:15	-2.4	-2.4	-2.4	94	-3.2	2	5	180	0.00	1017.003	0	0.000	0
20071129 03:20	-2.3	-2.3	-2.3	94	-3.2	2	6	247	0.00	1017.003	0	0.000	0
20071129 03:25	-2.3	-2.3	-2.3	94	-3.2	2	6	247	0.00	1017.037	0	0.000	0
20071129 03:30	-2.3	-2.3	-2.3	94	-3.1	2	5	247	0.00	1016.935	0	0.000	0
20071129 03:35	-2.2	-2.2	-2.2	93	-3.2	2	5	247	0.00	1016.868	0	0.000	0
20071129 03:40	-2.2	-2.2	-2.2	93	-3.2	3	5	247	0.00	1016.901	0	0.000	0
20071129 03:45	-2.2	-2.2	-2.2	93	-3.2	0	2	247	0.00	1016.834	0	0.000	0
20071129 03:50	-2.2	-2.2	-2.2	93	-3.1	2	3	247	0.00	1016.766	0	0.000	0
20071129 03:55	-2.1	-2.1	-2.1	93	-3.1	0	5	247	0.00	1016.732	0	0.000	0
20071129 04:00	-2.1	-2.1	-2.1	93	-3.1	0	3	247	0.00	1016.597	0	0.000	0
20071129 04:05	-2.1	-2.1	-2.1	93	-3.0	0	3	247	0.00	1016.698	0	0.000	0
20071129 04:10	-2.1	-2.1	-2.1	93	-3.0	2	3	247	0.00	1016.631	0	0.000	0
20071129 04:15	-2.1	-2.1	-2.1	93	-3.0	0	2	247	0.00	1016.495	0	0.000	0
20071129 04:20	-2.1	-2.1	-2.1	93	-3.0	2	5	247	0.00	1016.461	0	0.000	0
20071129 04:25	-2.1	-2.1	-2.1	93	-3.0	2	5	247	0.00	1016.427	0	0.000	0
20071129 04:30	-2.1	-2.1	-2.1	92	-3.2	2	5	247	0.00	1016.360	0	0.000	0
20071129 04:35	-2.1	-2.1	-2.1	92	-3.2	0	3	247	0.00	1016.360	0	0.000	0
20071129 04:40	-2.1	-2.1	-2.1	93	-3.0	0	5	247	0.00	1016.326	0	0.000	0
20071129 04:45	-2.1	-2.1	-2.1	92	-3.2	2	5	247	0.00	1016.258	0	0.000	0
20071129 04:50	-2.1	-2.1	-2.1	92	-3.2	2	5	247	0.00	1016.292	0	0.000	0
20071129 04:55	-2.1	-2.1	-2.1	92	-3.2	3	6	247	0.00	1016.258	0	0.000	0
20071129 05:00	-2.1	-2.1	-2.1	92	-3.2	2	3	247	0.00	1016.156	0	0.000	0
20071129 05:05	-2.2	-2.2	-2.2	92	-3.3	2	5	247	0.00	1016.156	0	0.000	0
20071129 05:10	-2.2	-2.2	-2.2	92	-3.3	2	5	247	0.00	1016.089	0	0.000	0
20071129 05:15	-2.2	-2.2	-2.2	92	-3.3	0	2	247	0.00	1016.156	0	0.000	0
20071129 05:20	-2.2	-2.2	-2.2	92	-3.3	0	3	247	0.00	1016.123	0	0.000	0
20071129 05:25	-2.2	-2.2	-2.2	93	-3.1	2	5	247	0.00	1016.156	0	0.000	0
20071129 05:30	-2.2	-2.2	-2.2	92	-3.3	0	3	247	0.00	1016.123	0	0.000	0
20071129 05:35	-2.2	-2.2	-2.2	92	-3.3	2	5	247	0.00	1016.055	0	0.000	0
20071129 05:40	-2.2	-2.2	-2.2	92	-3.3	2	3	247	0.00	1016.123	0	0.000	0
20071129 05:45	-2.2	-2.2	-2.2	92	-3.3	2	3	247	0.00	1016.089	0	0.000	0
20071129 05:50	-2.2	-2.2	-2.2	92	-3.3	0	3	247	0.00	1016.123	0	0.000	0
20071129 05:55	-2.2	-2.2	-2.2	92	-3.3	2	6	247	0.00	1016.021	0	0.000	0
20071129 06:00	-2.2	-2.2	-2.2	92	-3.3	2	8	247	0.00	1016.055	0	0.000	0
20071129 06:05	-2.2	-2.2	-2.2	92	-3.3	0	5	247	0.00	1016.089	0	0.000	0
20071129 06:10	-2.3	-2.3	-2.3	93	-3.3	0	5	247	0.00	1016.021	0	0.000	0
20071129 06:15	-2.3	-2.3	-2.3	93	-3.3	2	5	247	0.00	1016.089	0	0.000	0
20071129 06:20	-2.3	-2.3	-2.3	93	-3.3	2	5	247	0.00	1016.123	0	0.000	0
20071129 06:25	-2.3	-2.3	-2.3	93	-3.3	2	6	247	0.00	1016.089	0	0.000	0
20071129 06:30	-2.3	-2.3	-2.3	93	-3.3	0	3	247	0.00	1016.055	0	0.000	0
20071129 06:35	-2.3	-2.3	-2.3	93	-3.3	0	2	247	0.00	1015.886	0	0.000	0
20071129 06:40	-2.3	-2.3	-2.3	93	-3.3	2	5	247	0.00	1015.852	0	0.000	0
20071129 06:45	-2.3	-2.3	-2.3	93	-3.3	2	5	247	0.00	1015.852	0	0.000	0
20071129 06:50	-2.3	-2.3	-2.3	93	-3.3	0	3	247	0.00	1015.953	0	0.000	0
20071129 06:55	-2.3	-2.3	-2.3	93	-3.3	0	6	247	0.00	1016.021	0	0.000	0
20071129 07:00	-2.3	-2.3	-2.3	93	-3.3	2	5	247	0.00	1015.852	0	0.000	0
20071129 07:05	-2.4	-2.4	-2.4	93	-3.4	3	6	247	0.00	1015.987	0	0.000	0
20071129 07:10	-2.4	-2.4	-2.4	93	-3.4	2	5	247	0.00	1016.055	0	0.000	0
20071129 07:15	-2.4	-2.4	-2.4	93	-3.4	2	6	247	0.00	1016.055	0	0.000	0
20071129 07:20	-2.4	-2.4	-2.4	93	-3.4	3	6	247	0.00	1016.021	0	0.000	0
20071129 07:25	-2.5	-2.5	-2.5	93	-3.5	2	6	247	0.00	1015.852	0	0.000	0
20071129 07:30	-2.4	-2.4	-2.4	93	-3.4	0	5	247	0.00	1015.852	0	0.000	0
20071129 07:35	-2.4	-2.4	-2.4	93	-3.4	2	3	247	0.00	1015.818	0	0.000	0
20071129 07:40	-2.5	-2.5	-2.5	93	-3.5	0	3	247	0.00	1015.750	0	0.000	0
20071129 07:45	-2.5	-2.5	-2.5	93	-3.5	0	5	247	0.00	1015.818	0	0.000	0
20071129 07:50	-2.5	-2.5	-2.5	93	-3.5	2	5	247	0.00	1015.852	0	0.000	0
20071129 07:55	-2.6	-2.6	-2.6	94	-3.4	2	6	247	0.00	1016.089	3	0.000	0
20071129 08:00	-2.6	-2.6	-2.6	94	-3.4	2	5	247	0.00	1016.224	5	0.000	0
20071129 08:05	-2.6	-2.6	-2.6	94	-3.4	3	6	247	0.00	1016.224	7	0.000	0
20071129 08:10	-2.6	-2.6	-2.6	94	-3.4	2	6	247	0.00	1016.292	9	0.000	0
20071129 08:15	-2.6	-2.6	-2.6	94	-3.4	2	6	247	0.00	1016.360	10	0.000	0
20071129 08:20	-2.6	-2.6	-2.6	94	-3.4	2	6	247	0.00	1016.326	13	0.000	0
20071129 08:25	-2.5	-2.5	-2.5	94	-3.3	2	5	247	0.00	1016.224	14	0.000	0
20071129 08:30	-2.5	-2.5	-2.5	94	-3.3	2	5	247	0.00	1016.156	14	0.000	0
20071129 08:35	-2.4	-2.4	-2.4	94	-3.3	3	6	247	0.00	1016.224	19	0.000	0
20071129 08:40	-2.4	-2.4	-2.4	94	-3.2	2	5	247	0.00	1016.190	25	0.000	0
20071129 08:45	-2.3	-2.3	-2.3	94	-3.2	2	3	247	0.00	1016.224	26	0.000	0
20071129 08:50	-2.3	-2.3	-2.3	94	-3.1	2	6	247	0.00	1016.224	27	0.000	0
20071129 08:55	-2.3	-2.3	-2.3	94	-3.1	2	3	247	0.00	1016.258	29	0.000	0
20071129 09:00	-2.2	-2.2	-2.2	94	-3.1	3	6	247	0.00	1016.326	28	0.000	0
20071129 09:05	-2.2	-2.2	-2.2	94	-3.0	3	10	247	0.00	1016.326	30	0.000	0
20071129 09:10	-2.1	-2.1	-2.1	94	-2.9	3	10	225	0.00	1016.326	39	0.000	0
20071129 09:15	-2.0	-2.0	-2.0	94	-2.8	3	5	225	0.00	1016.326	37	0.000	0
20071129 09:20	-1.9	-1.9	-1.9	94	-2.8	3	6	225	0.00	1016.258	38	0.000	0
20071129 09:25	-1.9	-1.9	-1.9	93	-2.9	3	5	225	0.00	1016.190	43	0.000	0
20071129 09:30	-1.8	-1.8	-1.8	93	-2.8	3	8	225	0.00	1016.123	45	0.000	0
20071129 09:35	-1.8	-1.8	-1.8	93	-2.8	3	6	270	0.00	1016.258	44	0.000	0
20071129 09:40	-1.7	-4.2	-1.7	93	-2.7	6	11	292	0.00	1016.394	36	0.000	0
20071129 09:45	-1.8	-5.3	-1.8	93	-2.8	10	18	292	0.00	1016.427	38	0.000	0
20071129 09:50	-1.9	-5.5	-1.9	92	-3.1	10	16	292	0.00	1016.360	44	0.000	0
20071129 09:55	-2.1	-5.1	-2.1	92	-3.2	8	19	292	0.00	1016.495	48	0.000	0
20071129 10:00	-2.1	-2.1	-2.1	92	-3.2	5	11	292	0.00	1016.529	52	0.020	0
20071129 10:05	-2.1	-2.1	-2.1	92	-3.2	5	10	270	0.00	1016.563	53	0.000	0
20071129 10:10	-2.1	-4.6	-2.1	92	-3.2	6	11	270	0.00	1016.597	63	0.000	0
20071129 10:15	-2.2	-4.7	-2.2	92	-3.3	6	11	270	0.00	1016.597	65	0.000	0
20071129 10:20	-2.2	-2.2	-2.2	92	-3.3	5	10	270	0.00	1016.597	63	0.000	0
20071129 10:25	-2.2	-2.2	-2.2	92	-3.3	5	11	270	0.00	1016.698	66	0.000	0
20071129 10:30	-2.2	-4.7	-2.2	92	-3.3	6	10	270	0.00	1016.631	68	0.000	0
20071129 10:35	-2.2	-4.7	-2.2	92	-3.3	6	11	270	0.00	1016.495	71	0.000	0
20071129 10:40	-2.2	-2.2	-2.2	92	-3.3	5	10	270	0.00	1016.495	73	0.000	0
20071129 10:45	-2.2	-2.2	-2.2	92	-3.3	5	14	247	0.00	1016.529	81	0.000	0
20071129 10:50	-2.2	-4.7	-2.2	91	-3.4	6	11	292	0.00	1016.394	78	0.000	0
20071129 10:55	-2.1	-2.1	-2.1	92	-3.2	5	10	292	0.00	1016.427	83	0.000	0
20071129 11:00	-2.1	-5.1	-2.1	92	-3.2	8	18	270	0.00	1016.360	78	0.020	0
20071129 11:05	-2.1	-2.1	-2.1	91	-3.3	5	11	270	0.00	1016.292	78	0.000	0
20071129 11:10	-2.1	-2.1	-2.1	91	-3.4	3	8	292	0.00	1016.224	72	0.000	0
20071129 11:15	-2.2	-2.2	-2.2	91	-3.4	5	8	270	0.00	1016.089	90	0.000	0
20071129 11:20	-2.2	-2.2	-2.2	91	-3.4	5	8	270	0.00	1016.089	90	0.000	0
20071129 11:25	-2.2	-2.2	-2.2	91	-3.5	3	6	292	0.00	1016.156	85	0.000	0
20071129 11:30	-2.2	-2.2	-2.2	91	-3.5	3	8	270	0.00	1015.919	100	0.000	0
20071129 11:35	-2.3	-2.3	-2.3	91	-3.5	3	6	247	0.00	1015.987	103	0.000	0
20071129 11:40	-2.3	-2.3	-2.3	92	-3.4	3	6	270	0.00	1015.953	101	0.000	0
20071129 11:45	-2.2	-2.2	-2.2	92	-3.3	5	8	270	0.00	1015.919	101	0.000	0
20071129 11:50	-2.1	-4.6	-2.1	92	-3.2	6	10	292	0.00	1015.919	93	0.000	0
20071129 11:55	-2.1	-2.1	-2.1	92	-3.2	5	8	292	0.00	1015.886	116	0.000	1
20071129 12:00	-1.9	-1.9	-1.9	92	-3.1	5	8	315	0.00	1015.750	118	0.020	1
20071129 12:05	-1.8	-1.8	-1.8	91	-3.1	3	10	292	0.00	1015.682	112	0.000	1
20071129 12:10	-1.8	-4.3	-1.8	91	-3.1	6	11	292	0.00	1015.649	97	0.000	1
20071129 12:15	-1.8	-1.8	-1.8	91	-3.0	3	6	292	0.00	1015.682	97	0.000	1
20071129 12:20	-1.8	-1.8	-1.8	91	-3.0	2	6	270	0.00	1015.649	144	0.000	1
20071129 12:25	-1.7	-1.7	-1.7	91	-3.0	2	6	270	0.00	1015.547	165	0.000	1
20071129 12:30	-1.7	-1.7	-1.7	91	-2.9	2	6	292	0.00	1015.479	168	0.000	1
20071129 12:35	-1.4	-1.4	-1.4	91	-2.7	2	5	292	0.00	1015.445	210	0.000	1
20071129 12:40	-1.3	-1.3	-1.3	90	-2.7	2	6	292	0.00	1015.479	276	0.000	1
20071129 12:45	-1.1	-1.1	-1.1	89	-2.6	2	6	292	0.00	1015.445	261	0.000	1
20071129 12:50	-0.9	-0.9	-0.9	89	-2.5	2	6	292	0.00	1015.310	245	0.000	1
20071129 12:55	-1.0	-1.0	-1.0	89	-2.6	2	6	0	0.00	1015.378	228	0.000	1
20071129 13:00	-1.1	-1.1	-1.1	89	-2.7	2	5	337	0.00	1015.310	161	0.040	1
20071129 13:05	-1.2	-1.2	-1.2	89	-2.7	2	5	0	0.00	1015.208	151	0.000	1
20071129 13:10	-1.2	-1.2	-1.2	89	-2.8	2	5	0	0.00	1015.073	139	0.000	1
20071129 13:15	-1.4	-1.4	-1.4	89	-3.0	2	5	0	0.00	1015.107	141	0.000	1
20071129 13:20	-1.4	-1.4	-1.4	90	-2.8	2	5	0	0.00	1015.073	136	0.000	1
20071129 13:25	-1.3	-1.3	-1.3	90	-2.8	2	3	337	0.00	1015.039	168	0.000	1
20071129 13:30	-1.3	-1.3	-1.3	90	-2.8	0	5	0	0.00	1014.937	214	0.000	1
20071129 13:35	-1.2	-1.2	-1.2	89	-2.8	0	3	337	0.00	1014.836	194	0.000	1
20071129 13:40	-1.3	-1.3	-1.3	89	-2.9	2	5	22	0.00	1014.904	138	0.000	1
20071129 13:45	-1.5	-1.5	-1.5	89	-3.1	2	5	22	0.00	1014.904	128	0.000	1
20071129 13:50	-1.5	-1.5	-1.5	89	-3.1	2	5	315	0.00	1014.870	184	0.000	1
20071129 13:55	-1.4	-1.4	-1.4	90	-2.8	2	5	0	0.00	1014.802	204	0.000	1
20071129 14:00	-1.2	-1.2	-1.2	90	-2.6	2	3	0	0.00	1014.768	216	0.040	0
20071129 14:05	-0.9	-0.9	-0.9	90	-2.4	2	6	315	0.00	1014.599	229	0.000	0
20071129 14:10	-0.9	-0.9	-0.9	89	-2.5	0	5	337	0.00	1014.463	159	0.000	0
20071129 14:15	-1.0	-1.0	-1.0	88	-2.7	2	5	0	0.00	1014.463	82	0.000	0
20071129 14:20	-1.2	-1.2	-1.2	89	-2.7	2	6	0	0.00	1014.362	68	0.000	0
20071129 14:25	-1.3	-1.3	-1.3	89	-2.9	5	6	45	0.00	1014.362	71	0.000	0
20071129 14:30	-1.4	-1.4	-1.4	90	-2.8	3	5	67	0.00	1014.463	70	0.000	0
20071129 14:35	-1.4	-1.4	-1.4	90	-2.9	0	5	67	0.00	1014.497	93	0.000	0
20071129 14:40	-1.5	-1.5	-1.5	90	-2.9	2	5	67	0.00	1014.362	77	0.000	0
20071129 14:45	-1.6	-1.6	-1.6	90	-3.0	3	5	67	0.00	1014.328	76	0.000	0
20071129 14:50	-1.6	-1.6	-1.6	90	-3.0	2	6	67	0.00	1014.328	55	0.000	0
20071129 14:55	-1.6	-1.6	-1.6	90	-3.0	2	6	135	0.00	1014.226	64	0.000	0
20071129 15:00	-1.6	-1.6	-1.6	91	-2.8	2	5	135	0.00	1014.226	65	0.020	0
20071129 15:05	-1.4	-1.4	-1.4	91	-2.7	3	6	135	0.00	1014.226	57	0.000	0
20071129 15:10	-1.4	-1.4	-1.4	91	-2.7	2	6	135	0.00	1014.125	46	0.000	0
20071129 15:15	-1.3	-1.3	-1.3	90	-2.7	3	6	135	0.00	1014.125	55	0.000	0
20071129 15:20	-1.2	-1.2	-1.2	90	-2.6	3	6	135	0.00	1014.226	52	0.000	0
20071129 15:25	-1.2	-1.2	-1.2	90	-2.6	2	5	135	0.00	1014.159	38	0.000	0
20071129 15:30	-1.3	-1.3	-1.3	90	-2.7	2	5	135	0.00	1014.159	36	0.000	0
20071129 15:35	-1.3	-1.3	-1.3	90	-2.7	3	6	135	0.00	1014.192	34	0.000	0
20071129 15:40	-1.3	-1.3	-1.3	90	-2.7	2	5	135	0.00	1014.260	33	0.000	0
20071129 15:45	-1.2	-1.2	-1.2	90	-2.6	0	3	135	0.00	1014.192	30	0.000	0
20071129 15:50	-1.3	-1.3	-1.3	90	-2.7	2	3	135	0.00	1014.260	26	0.000	0
20071129 15:55	-1.3	-1.3	-1.3	90	-2.7	0	3	135	0.00	1014.226	24	0.000	0
20071129 16:00	-1.3	-1.3	-1.3	90	-2.8	2	3	135	0.00	1014.260	20	0.020	0
20071129 16:05	-1.4	-1.4	-1.4	90	-2.9	0	3	135	0.00	1014.294	17	0.000	0
20071129 16:10	-1.4	-1.4	-1.4	91	-2.7	0	3	135	0.00	1014.463	13	0.000	0
20071129 16:15	-1.6	-1.6	-1.6	91	-2.8	2	5	135	0.00	1014.396	9	0.000	0
20071129 16:20	-1.7	-1.7	-1.7	91	-3.0	5	6	135	0.00	1014.429	3	0.000	0
20071129 16:25	-1.8	-1.8	-1.8	92	-2.9	2	5	135	0.00	1014.396	0	0.000	0
20071129 16:30	-1.9	-1.9	-1.9	92	-3.0	3	5	135	0.00	1014.396	0	0.000	0
20071129 16:35	-1.9	-1.9	-1.9	92	-3.1	0	2	135	0.00	1014.396	0	0.000	0
20071129 16:40	-1.9	-1.9	-1.9	92	-3.1	0	2	135	0.00	1014.396	0	0.000	0
20071129 16:45	-2.0	-2.0	-2.0	92	-3.1	0	2	135	0.00	1014.362	0	0.000	0
20071129 16:50	-2.1	-2.1	-2.1	92	-3.2	0	3	135	0.00	1014.429	0	0.000	0
20071129 16:55	-2.1	-2.1	-2.1	93	-3.0	0	2	135	0.00	1014.328	0	0.000	0
20071129 17:00	-2.1	-2.1	-2.1	93	-3.1	0	2	135	0.00	1014.260	0	0.000	0
20071129 17:05	-2.2	-2.2	-2.2	93	-3.1	0	3	135	0.00	1014.226	0	0.000	0
20071129 17:10	-2.2	-2.2	-2.2	93	-3.2	0	2	135	0.00	1014.328	0	0.000	0
20071129 17:15	-2.3	-2.3	-2.3	93	-3.3	0	2	135	0.00	1014.429	0	0.000	0
20071129 17:20	-2.4	-2.4	-2.4	93	-3.4	0	0	135	0.00	1014.497	0	0.000	0
20071129 17:25	-2.4	-2.4	-2.4	93	-3.4	0	0	135	0.00	1014.497	0	0.000	0
20071129 17:30	-2.5	-2.5	-2.5	93	-3.5	0	0	135	0.00	1014.633	0	0.000	0
20071129 17:35	-2.6	-2.6	-2.6	93	-3.5	0	0	135	0.00	1014.836	0	0.000	0
20071129 17:40	-2.6	-2.6	-2.6	93	-3.6	0	0	135	0.00	1014.971	0	0.000	0
20071129 17:45	-2.7	-2.7	-2.7	93	-3.6	0	2	135	0.00	1015.073	0	0.000	0
20071129 17:50	-2.7	-2.7	-2.7	94	-3.6	0	2	135	0.00	1015.005	0	0.000	0
20071129 17:55	-2.7	-2.7	-2.7	94	-3.6	0	3	135	0.00	1015.107	0	0.000	0
20071129 18:00	-2.8	-2.8	-2.8	94	-3.6	0	2	135	0.00	1015.073	0	0.000	0
20071129 18:05	-2.8	-2.8	-2.8	94	-3.7	0	2	135	0.00	1015.141	0	0.000	0
20071129 18:10	-2.8	-2.8	-2.8	94	-3.7	0	0	135	0.00	1015.174	0	0.000	0
20071129 18:15	-2.8	-2.8	-2.8	94	-3.7	0	2	135	0.00	1015.174	0	0.000	0
20071129 18:20	-2.9	-2.9	-2.9	94	-3.7	0	2	135	0.00	1015.208	0	0.000	0
20071129 18:25	-2.9	-2.9	-2.9	94	-3.7	0	0	135	0.00	1015.310	0	0.000	0
20071129 18:30	-2.9	-2.9	-2.9	94	-3.8	0	2	135	0.00	1015.310	0	0.000	0
20071129 18:35	-2.9	-2.9	-2.9	94	-3.8	0	2	135	0.00	1015.344	0	0.000	0
20071129 18:40	-2.9	-2.9	-2.9	94	-3.8	0	0	135	0.00	1015.378	0	0.000	0
20071129 18:45	-2.9	-2.9	-2.9	94	-3.8	0	0	135	0.00	1015.242	0	0.000	0
20071129 18:50	-2.9	-2.9	-2.9	94	-3.7	0	2	135	0.00	1015.208	0	0.000	0
20071129 18:55	-2.9	-2.9	-2.9	94	-3.7	0	0	135	0.00	1015.242	0	0.000	0
20071129 19:00	-2.8	-2.8	-2.8	94	-3.7	0	0	135	0.00	1015.344	0	0.000	0
20071129 19:05	-2.8	-2.8	-2.8	94	-3.6	0	3	135	0.00	1015.344	0	0.000	0
20071129 19:10	-2.7	-2.7	-2.7	94	-3.6	0	2	135	0.00	1015.378	0	0.000	0
20071129 19:15	-2.7	-2.7	-2.7	95	-3.4	0	2	135	0.00	1015.445	0	0.000	0
20071129 19:20	-2.5	-2.5	-2.5	94	-3.3	0	2	157	0.00	1015.445	0	0.000	0
20071129 19:25	-2.5	-2.5	-2.5	94	-3.3	0	3	157	0.00	1015.411	0	0.000	0
20071129 19:30	-2.4	-2.4	-2.4	94	-3.3	0	3	157	0.00	1015.378	0	0.000	0
20071129 19:35	-2.4	-2.4	-2.4	94	-3.2	0	3	157	0.00	1015.344	0	0.000	0
20071129 19:40	-2.3	-2.3	-2.3	94	-3.2	0	2	157	0.00	1015.276	0	0.000	0
20071129 19:45	-2.3	-2.3	-2.3	94	-3.1	0	3	157	0.00	1015.378	0	0.000	0
20071129 19:50	-2.2	-2.2	-2.2	94	-3.0	0	3	157	0.00	1015.479	0	0.000	0
20071129 19:55	-2.2	-2.2	-2.2	94	-3.0	0	3	157	0.00	1015.445	0	0.000	0
20071129 20:00	-2.1	-2.1	-2.1	94	-2.9	0	2	157	0.00	1015.445	0	0.000	0
20071129 20:05	-2.0	-2.0	-2.0	94	-2.8	0	5	157	0.00	1015.276	0	0.000	0
20071129 20:10	-1.9	-1.9	-1.9	94	-2.8	0	2	157	0.00	1015.378	0	0.000	0
20071129 20:15	-1.9	-1.9	-1.9	94	-2.8	0	3	157	0.00	1015.411	0	0.000	0
20071129 20:20	-1.9	-1.9	-1.9	94	-2.7	0	3	157	0.00	1015.411	0	0.000	0
20071129 20:25	-1.8	-1.8	-1.8	93	-2.8	0	2	157	0.00	1015.344	0	0.000	0
20071129 20:30	-1.8	-1.8	-1.8	93	-2.8	0	3	157	0.00	1015.344	0	0.000	0
20071129 20:35	-1.7	-1.7	-1.7	93	-2.6	0	3	157	0.00	1015.276	0	0.000	0
20071129 20:40	-1.6	-1.6	-1.6	93	-2.6	0	3	157	0.00	1015.141	0	0.000	0
20071129 20:45	-1.6	-1.6	-1.6	92	-2.7	0	3	157	0.00	1015.073	0	0.000	0
20071129 20:50	-1.6	-1.6	-1.6	92	-2.7	2	5	157	0.00	1015.039	0	0.000	0
20071129 20:55	-1.5	-1.5	-1.5	92	-2.6	0	3	157	0.00	1015.039	0	0.000	0
20071129 21:00	-1.5	-1.5	-1.5	92	-2.6	0	3	157	0.00	1014.971	0	0.000	0
20071129 21:05	-1.4	-1.4	-1.4	91	-2.7	0	6	157	0.00	1014.802	0	0.000	0
20071129 21:10	-1.3	-1.3	-1.3	91	-2.6	2	6	180	0.00	1014.768	0	0.000	0
20071129 21:15	-1.4	-1.4	-1.4	91	-2.7	2	5	180	0.00	1014.768	0	0.000	0
20071129 21:20	-1.3	-1.3	-1.3	90	-2.8	2	11	180	0.00	1014.666	0	0.000	0
20071129 21:25	-1.3	-1.3	-1.3	90	-2.7	2	8	180	0.00	1014.633	0	0.000	0
20071129 21:30	-1.2	-1.2	-1.2	89	-2.8	2	5	180	0.00	1014.633	0	0.000	0
20071129 21:35	-1.2	-1.2	-1.2	89	-2.8	3	8	180	0.00	1014.700	0	0.000	0
20071129 21:40	-1.2	-1.2	-1.2	89	-2.8	3	10	180	0.00	1014.565	0	0.000	0
20071129 21:45	-1.2	-1.2	-1.2	89	-2.8	3	11	202	0.00	1014.497	0	0.000	0
20071129 21:50	-1.2	-1.2	-1.2	89	-2.8	3	6	202	0.00	1014.463	0	0.000	0
20071129 21:55	-1.2	-1.2	-1.2	89	-2.8	2	5	202	0.00	1014.599	0	0.000	0
20071129 22:00	-1.3	-1.3	-1.3	89	-2.9	2	5	202	0.00	1014.497	0	0.000	0
20071129 22:05	-1.3	-1.3	-1.3	89	-2.9	3	8	202	0.00	1014.362	0	0.000	0
20071129 22:10	-1.2	-1.2	-1.2	89	-2.8	0	3	202	0.00	1014.294	0	0.000	0
20071129 22:15	-1.2	-1.2	-1.2	88	-3.0	0	5	202	0.00	1014.294	0	0.000	0
20071129 22:20	-1.2	-1.2	-1.2	88	-2.9	3	8	202	0.00	1014.260	0	0.000	0
20071129 22:25	-1.1	-1.1	-1.1	88	-2.8	3	8	202	0.00	1014.091	0	0.000	0
20071129 22:30	-1.0	-1.0	-1.0	87	-2.9	3	6	180	0.00	1014.023	0	0.000	0
20071129 22:35	-0.9	-0.9	-0.9	87	-2.8	3	10	180	0.00	1014.023	0	0.000	0
20071129 22:40	-1.0	-1.0	-1.0	87	-2.9	2	8	225	0.00	1014.023	0	0.000	0
20071129 22:45	-1.0	-1.0	-1.0	87	-2.9	2	5	225	0.00	1013.989	0	0.000	0
20071129 22:50	-1.0	-1.0	-1.0	87	-2.9	2	5	225	0.00	1013.888	0	0.000	0
20071129 22:55	-1.0	-1.0	-1.0	87	-2.9	0	3	225	0.00	1013.820	0	0.000	0
20071129 23:00	-1.1	-1.1	-1.1	87	-2.9	0	2	225	0.00	1013.786	0	0.000	0
20071129 23:05	-1.1	-1.1	-1.1	87	-3.0	0	2	225	0.00	1013.786	0	0.000	0
20071129 23:10	-1.2	-1.2	-1.2	87	-3.1	0	2	225	0.00	1013.752	0	0.000	0
20071129 23:15	-1.2	-1.2	-1.2	88	-3.0	0	5	225	0.00	1013.617	0	0.000	0
20071129 23:20	-1.3	-1.3	-1.3	88	-3.0	2	5	225	0.00	1013.684	0	0.000	0
20071129 23:25	-1.3	-1.3	-1.3	88	-3.1	0	5	225	0.00	1013.651	0	0.000	0
20071129 23:30	-1.4	-1.4	-1.4	88	-3.1	3	6	225	0.00	1013.651	0	0.000	0
20071129 23:35	-1.2	-1.2	-1.2	88	-3.0	3	8	225	0.00	1013.617	0	0.000	0
20071129 23:40	-0.9	-0.9	-0.9	87	-2.8	3	5	225	0.00	1013.651	0	0.000	0
20071129 23:45	-0.7	-0.7	-0.7	86	-2.8	2	5	225	0.00	1013.515	0	0.000	0
20071129 23:50	-0.7	-0.7	-0.7	86	-2.7	0	5	225	0.00	1013.447	0	0.000	0
20071129 23:55	-0.7	-0.7	-0.7	86	-2.8	2	5	225	0.00	1013.481	0	0.000	0
20071129 24:00	-0.6	-0.6	-0.6	85	-2.8	2	5	225	0.00	1013.346	0	0.000	0



Please note the license to use and transfer of this data:
http://creativecommons.org/licenses/by-nc-sa/3.0/deed.en

Bitte beachten sie die Lizenz zur Verwertung und Weitergabe der Daten:
http://creativecommons.org/licenses/by-nc-sa/3.0/deed.de

zurück zur Übersicht der Archivdaten (Monats und Tagesdaten)

Cookies helfen bei der Bereitstellung von Inhalten. Durch die Nutzung dieser Seiten erklärst du dich damit einverstanden, dass Cookies auf deinem Rechner gespeichert werden. Weitere Information